createdAt,value
2022-12-01T00:01:57.029Z,77.10
2022-12-01T00:04:58.944Z,77.00
2022-12-01T00:08:00.900Z,77.30
2022-12-01T00:11:08.339Z,77.10
2022-12-01T00:14:10.206Z,77.40
2022-12-01T00:17:12.042Z,78.00
2022-12-01T00:20:14.959Z,78.00
2022-12-01T00:23:16.728Z,78.50
2022-12-01T00:26:20.334Z,78.60
2022-12-01T00:29:22.185Z,78.70
2022-12-01T00:32:24.850Z,78.10
2022-12-01T00:35:26.746Z,78.60
2022-12-01T00:38:29.094Z,78.80
2022-12-01T00:41:30.940Z,78.70
2022-12-01T00:44:32.809Z,78.60
2022-12-01T00:47:34.662Z,78.90
2022-12-01T00:50:36.628Z,77.80
2022-12-01T00:53:38.547Z,78.30
2022-12-01T00:56:40.449Z,78.70
2022-12-01T00:59:42.471Z,78.90
2022-12-01T01:02:44.665Z,79.00
2022-12-01T01:05:46.622Z,79.60
2022-12-01T01:08:48.532Z,79.30
2022-12-01T01:11:50.436Z,79.30
2022-12-01T01:14:52.286Z,78.90
2022-12-01T01:17:54.718Z,79.50
2022-12-01T01:21:01.927Z,79.10
2022-12-01T01:24:04.025Z,78.40
2022-12-01T01:27:05.941Z,78.20
2022-12-01T01:30:08.553Z,77.60
2022-12-01T01:33:10.409Z,77.60
2022-12-01T01:36:12.758Z,77.70
2022-12-01T01:39:17.080Z,76.60
2022-12-01T01:42:20.365Z,75.80
2022-12-01T01:45:24.739Z,75.90
2022-12-01T01:48:26.618Z,76.20
2022-12-01T01:51:38.798Z,75.30
2022-12-01T01:54:44.160Z,75.80
2022-12-01T01:57:46.722Z,75.20
2022-12-01T02:00:48.683Z,75.40
2022-12-01T02:03:53.492Z,74.70
2022-12-01T02:06:55.646Z,74.90
2022-12-01T02:09:57.802Z,74.40
2022-12-01T02:13:08.440Z,75.00
2022-12-01T02:16:18.563Z,74.20
2022-12-01T02:19:39.338Z,75.10
2022-12-01T02:23:07.057Z,75.10
2022-12-01T02:26:29.863Z,74.40
2022-12-01T02:30:02.454Z,75.30
2022-12-01T02:33:07.461Z,75.10
2022-12-01T02:36:18.471Z,75.00
2022-12-01T02:39:49.374Z,74.50
2022-12-01T02:43:18.550Z,75.20
2022-12-01T02:46:35.561Z,75.00
2022-12-01T02:49:43.744Z,75.20
2022-12-01T02:52:45.760Z,74.50
2022-12-01T02:55:52.215Z,74.50
2022-12-01T02:58:54.155Z,75.10
2022-12-01T03:02:33.683Z,74.70
2022-12-01T03:05:45.720Z,74.90
2022-12-01T03:09:25.003Z,74.80
2022-12-01T03:12:36.804Z,74.70
2022-12-01T03:15:56.867Z,74.30
2022-12-01T03:19:28.848Z,72.60
2022-12-01T03:22:40.131Z,72.90
2022-12-01T03:25:47.065Z,73.00
2022-12-01T03:29:00.399Z,73.50
2022-12-01T03:32:20.563Z,73.20
2022-12-01T03:35:38.122Z,73.70
2022-12-01T03:38:43.998Z,72.50
2022-12-01T03:41:51.598Z,73.30
2022-12-01T03:44:56.756Z,73.50
2022-12-01T03:47:58.929Z,73.70
2022-12-01T03:51:19.119Z,73.40
2022-12-01T03:54:48.637Z,73.20
2022-12-01T03:58:17.148Z,73.10
2022-12-01T04:01:19.193Z,73.40
2022-12-01T04:04:21.200Z,74.10
2022-12-01T04:07:23.377Z,74.30
2022-12-01T04:10:25.280Z,73.70
2022-12-01T04:13:27.176Z,72.60
2022-12-01T04:16:29.057Z,72.50
2022-12-01T04:19:31.012Z,72.50
2022-12-01T04:22:33.689Z,72.30
2022-12-01T04:25:35.828Z,73.10
2022-12-01T04:28:37.746Z,72.40
2022-12-01T04:31:40.251Z,73.20
2022-12-01T04:34:42.358Z,73.10
2022-12-01T04:37:44.231Z,73.60
2022-12-01T04:40:46.117Z,73.80
2022-12-01T04:43:47.973Z,74.40
2022-12-01T04:46:52.037Z,74.30
2022-12-01T04:49:53.877Z,74.40
2022-12-01T04:52:55.747Z,73.90
2022-12-01T04:55:59.153Z,74.30
2022-12-01T04:59:03.553Z,73.60
2022-12-01T05:02:05.504Z,74.10
2022-12-01T05:05:07.776Z,74.30
2022-12-01T05:08:09.810Z,74.40
2022-12-01T05:11:13.322Z,73.80
2022-12-01T05:14:15.194Z,73.70
2022-12-01T05:17:17.130Z,73.90
2022-12-01T05:20:22.256Z,73.80
2022-12-01T05:23:29.382Z,72.90
2022-12-01T05:26:31.221Z,73.60
2022-12-01T05:29:33.276Z,73.50
2022-12-01T05:32:35.214Z,73.40
2022-12-01T05:35:37.179Z,73.10
2022-12-01T05:38:39.122Z,73.10
2022-12-01T05:41:41.179Z,72.60
2022-12-01T05:44:43.096Z,72.90
2022-12-01T05:47:44.928Z,72.50
2022-12-01T05:50:46.985Z,73.10
2022-12-01T05:53:49.615Z,72.70
2022-12-01T05:56:51.453Z,72.60
2022-12-01T05:59:53.305Z,73.20
2022-12-01T06:02:55.286Z,73.40
2022-12-01T06:05:59.392Z,72.10
2022-12-01T06:09:03.603Z,73.40
2022-12-01T06:12:05.664Z,72.20
2022-12-01T06:15:08.575Z,72.10
2022-12-01T06:18:10.557Z,72.50
2022-12-01T06:21:12.538Z,72.20
2022-12-01T06:24:14.553Z,72.60
2022-12-01T06:27:16.474Z,72.00
2022-12-01T06:30:18.356Z,72.10
2022-12-01T06:33:20.193Z,72.20
2022-12-01T06:36:22.103Z,73.20
2022-12-01T06:39:23.957Z,73.00
2022-12-01T06:42:28.809Z,73.30
2022-12-01T06:45:31.541Z,72.50
2022-12-01T06:48:33.601Z,72.50
2022-12-01T06:51:35.511Z,72.70
2022-12-01T06:54:37.512Z,73.20
2022-12-01T06:57:39.691Z,73.90
2022-12-01T07:00:41.648Z,73.70
2022-12-01T07:03:46.932Z,74.10
2022-12-01T07:06:48.859Z,72.60
2022-12-01T07:09:50.964Z,74.30
2022-12-01T07:12:53.027Z,73.60
2022-12-01T07:15:55.047Z,73.40
2022-12-01T07:18:57.021Z,73.60
2022-12-01T07:21:58.871Z,73.40
2022-12-01T07:25:00.740Z,73.60
2022-12-01T07:28:02.677Z,73.50
2022-12-01T07:31:08.872Z,74.70
2022-12-01T07:34:13.647Z,73.70
2022-12-01T07:37:15.566Z,73.60
2022-12-01T07:40:17.527Z,73.90
2022-12-01T07:43:19.425Z,74.20
2022-12-01T07:46:24.702Z,73.30
2022-12-01T07:49:26.767Z,73.90
2022-12-01T07:52:28.596Z,73.70
2022-12-01T07:55:30.515Z,72.80
2022-12-01T07:58:32.744Z,73.50
2022-12-01T08:01:34.633Z,72.40
2022-12-01T08:04:36.572Z,73.30
2022-12-01T08:07:38.463Z,72.80
2022-12-01T08:10:40.727Z,73.00
2022-12-01T08:13:43.325Z,73.20
2022-12-01T08:16:45.213Z,74.20
2022-12-01T08:19:47.251Z,74.20
2022-12-01T08:22:49.312Z,74.50
2022-12-01T08:25:51.321Z,73.90
2022-12-01T08:28:53.566Z,74.90
2022-12-01T08:31:58.396Z,74.60
2022-12-01T08:35:00.203Z,75.30
2022-12-01T08:38:02.142Z,74.50
2022-12-01T08:41:08.730Z,75.30
2022-12-01T08:44:11.136Z,74.60
2022-12-01T08:47:17.259Z,74.90
2022-12-01T08:50:20.659Z,75.10
2022-12-01T08:53:22.545Z,74.60
2022-12-01T08:56:26.390Z,75.10
2022-12-01T08:59:28.344Z,74.60
2022-12-01T09:02:30.228Z,74.00
2022-12-01T09:05:32.177Z,74.20
2022-12-01T09:08:36.992Z,73.80
2022-12-01T09:11:40.030Z,73.50
2022-12-01T09:14:43.753Z,74.50
2022-12-01T09:17:48.527Z,73.90
2022-12-01T09:20:50.547Z,73.90
2022-12-01T09:23:53.437Z,74.30
2022-12-01T09:26:57.120Z,73.80
2022-12-01T09:29:58.955Z,74.50
2022-12-01T09:33:00.824Z,73.20
2022-12-01T09:36:04.268Z,73.60
2022-12-01T09:39:08.184Z,73.50
2022-12-01T09:42:16.516Z,74.10
2022-12-01T09:45:32.556Z,73.70
2022-12-01T09:48:54.022Z,74.50
2022-12-01T09:51:55.988Z,74.80
2022-12-01T09:55:00.510Z,75.10
2022-12-01T09:58:04.941Z,75.60
2022-12-01T10:01:10.576Z,74.30
2022-12-01T10:04:16.519Z,74.90
2022-12-01T10:07:27.144Z,73.90
2022-12-01T10:10:37.760Z,74.00
2022-12-01T10:13:39.627Z,73.00
2022-12-01T10:17:03.061Z,73.90
2022-12-01T10:20:15.337Z,74.00
2022-12-01T10:23:37.411Z,74.50
2022-12-01T10:26:55.667Z,73.80
2022-12-01T10:30:09.977Z,74.20
2022-12-01T10:33:25.455Z,74.50
2022-12-01T10:36:28.814Z,74.40
2022-12-01T10:39:40.718Z,74.60
2022-12-01T10:42:52.087Z,74.80
2022-12-01T10:45:55.002Z,74.80
2022-12-01T10:49:00.853Z,75.00
2022-12-01T10:52:02.700Z,75.30
2022-12-01T10:55:29.112Z,74.70
2022-12-01T10:58:34.399Z,74.60
2022-12-01T11:01:36.476Z,75.30
2022-12-01T11:04:43.023Z,74.60
2022-12-01T11:07:47.387Z,73.80
2022-12-01T11:10:50.260Z,74.30
2022-12-01T11:13:52.345Z,74.00
2022-12-01T11:16:54.223Z,74.40
2022-12-01T11:19:56.606Z,74.00
2022-12-01T11:23:24.296Z,74.50
2022-12-01T11:26:33.375Z,73.30
2022-12-01T11:29:36.368Z,73.90
2022-12-01T11:32:39.986Z,73.40
2022-12-01T11:35:47.971Z,72.60
2022-12-01T11:38:50.761Z,72.70
2022-12-01T11:41:59.494Z,73.40
2022-12-01T11:45:13.393Z,73.30
2022-12-01T11:48:25.920Z,73.90
2022-12-01T12:03:36.126Z,74.40
2022-12-01T12:07:05.729Z,74.00
2022-12-01T12:10:39.286Z,73.30
2022-12-01T12:14:10.435Z,73.90
2022-12-01T12:17:44.136Z,72.80
2022-12-01T12:21:01.497Z,73.80
2022-12-01T12:24:41.664Z,73.20
2022-12-01T12:27:43.460Z,73.80
2022-12-01T12:31:11.238Z,73.40
2022-12-01T12:34:19.271Z,73.10
2022-12-01T12:37:58.824Z,73.90
2022-12-01T12:41:45.080Z,74.30
2022-12-01T12:44:51.484Z,74.10
2022-12-01T12:48:20.740Z,74.70
2022-12-01T12:51:34.834Z,73.70
2022-12-01T12:55:13.297Z,73.10
2022-12-01T12:58:18.603Z,73.60
2022-12-01T13:01:46.317Z,73.20
2022-12-01T13:05:01.133Z,73.20
2022-12-01T13:08:10.843Z,73.50
2022-12-01T13:11:27.507Z,73.30
2022-12-01T13:15:00.876Z,72.80
2022-12-01T13:18:19.953Z,73.90
2022-12-01T13:21:22.918Z,73.40
2022-12-01T13:24:27.437Z,74.10
2022-12-01T13:27:34.115Z,73.30
2022-12-01T13:30:36.013Z,74.00
2022-12-01T13:33:42.504Z,73.60
2022-12-01T13:36:49.786Z,73.80
2022-12-01T13:39:54.516Z,74.00
2022-12-01T13:43:13.684Z,74.00
2022-12-01T13:46:49.519Z,73.50
2022-12-01T13:49:52.928Z,72.60
2022-12-01T13:53:10.820Z,73.50
2022-12-01T13:56:15.683Z,73.00
2022-12-01T13:59:39.441Z,73.20
2022-12-01T14:02:41.494Z,74.00
2022-12-01T14:05:50.979Z,73.20
2022-12-01T14:09:04.478Z,73.00
2022-12-01T14:12:22.076Z,73.70
2022-12-01T14:15:30.129Z,73.50
2022-12-01T14:18:34.901Z,73.80
2022-12-01T14:21:43.106Z,73.60
2022-12-01T14:24:52.788Z,72.80
2022-12-01T14:27:57.856Z,73.80
2022-12-01T14:31:03.768Z,73.20
2022-12-01T14:34:17.326Z,73.60
2022-12-01T14:37:24.799Z,73.50
2022-12-01T14:40:29.863Z,73.50
2022-12-01T14:43:31.967Z,72.90
2022-12-01T14:46:48.839Z,73.60
2022-12-01T14:50:01.821Z,73.10
2022-12-01T14:53:11.227Z,72.50
2022-12-01T14:56:17.152Z,73.50
2022-12-01T14:59:24.166Z,74.10
2022-12-01T15:02:27.063Z,74.40
2022-12-01T15:05:32.517Z,74.10
2022-12-01T15:12:01.572Z,74.80
2022-12-01T15:15:23.693Z,73.80
2022-12-01T15:18:36.765Z,74.00
2022-12-01T15:21:38.687Z,74.50
2022-12-01T15:24:41.572Z,74.40
2022-12-01T15:27:43.619Z,74.40
2022-12-01T15:30:52.914Z,74.10
2022-12-01T15:33:56.107Z,74.50
2022-12-01T15:36:58.965Z,74.70
2022-12-01T15:40:54.195Z,74.60
2022-12-01T15:43:39.698Z,74.80
2022-12-01T15:46:41.641Z,74.00
2022-12-01T15:49:50.357Z,74.90
2022-12-01T15:52:52.645Z,75.20
2022-12-01T15:55:59.020Z,74.70
2022-12-01T15:59:21.288Z,74.40
2022-12-01T16:02:31.189Z,74.80
2022-12-01T16:05:35.874Z,75.30
2022-12-01T16:08:38.023Z,75.40
2022-12-01T16:11:40.055Z,74.70
2022-12-01T16:14:55.896Z,75.40
2022-12-01T16:17:59.040Z,75.40
2022-12-01T16:21:05.490Z,74.60
2022-12-01T16:24:13.197Z,75.50
2022-12-01T16:27:30.075Z,75.20
2022-12-01T16:30:39.729Z,75.80
2022-12-01T16:33:41.839Z,75.60
2022-12-01T16:36:43.842Z,75.30
2022-12-01T16:39:46.028Z,76.70
2022-12-01T16:42:48.089Z,75.60
2022-12-01T16:45:51.408Z,75.60
2022-12-01T16:48:53.295Z,75.60
2022-12-01T16:51:56.903Z,75.80
2022-12-01T16:54:59.356Z,76.00
2022-12-01T16:58:01.347Z,76.50
2022-12-01T17:01:05.474Z,76.00
2022-12-01T17:04:07.968Z,76.90
2022-12-01T17:07:09.880Z,76.20
2022-12-01T17:10:12.226Z,76.10
2022-12-01T17:13:14.440Z,75.90
2022-12-01T17:16:18.763Z,76.90
2022-12-01T17:19:20.977Z,77.00
2022-12-01T17:22:23.048Z,76.30
2022-12-01T17:25:27.243Z,76.40
2022-12-01T17:28:29.260Z,76.50
2022-12-01T17:31:31.285Z,76.10
2022-12-01T17:34:33.276Z,75.70
2022-12-01T17:37:35.314Z,75.70
2022-12-01T17:40:37.200Z,76.40
2022-12-01T17:43:39.727Z,77.00
2022-12-01T17:46:41.890Z,77.50
2022-12-01T17:49:43.819Z,76.70
2022-12-01T17:52:46.419Z,77.40
2022-12-01T17:55:48.285Z,77.50
2022-12-01T17:58:50.265Z,77.70
2022-12-01T18:01:52.214Z,77.40
2022-12-01T18:04:54.587Z,78.10
2022-12-01T18:07:56.650Z,77.70
2022-12-01T18:11:04.176Z,77.80
2022-12-01T18:14:06.051Z,77.60
2022-12-01T18:17:12.497Z,78.50
2022-12-01T18:20:15.389Z,78.20
2022-12-01T18:23:17.265Z,78.50
2022-12-01T18:26:20.327Z,78.10
2022-12-01T18:29:22.284Z,78.50
2022-12-01T18:32:24.149Z,78.00
2022-12-01T18:35:31.597Z,78.40
2022-12-01T18:38:34.126Z,78.60
2022-12-01T18:41:37.183Z,78.70
2022-12-01T18:44:39.084Z,78.80
2022-12-01T18:47:40.961Z,79.20
2022-12-01T18:50:42.811Z,79.40
2022-12-01T18:53:47.543Z,78.90
2022-12-01T18:56:54.294Z,79.30
2022-12-01T18:59:56.259Z,79.00
2022-12-01T19:02:58.471Z,79.30
2022-12-01T19:06:06.075Z,79.60
2022-12-01T19:09:10.853Z,79.30
2022-12-01T19:12:12.895Z,79.70
2022-12-01T19:15:14.791Z,79.40
2022-12-01T19:18:17.049Z,79.90
2022-12-01T19:21:20.469Z,80.00
2022-12-01T19:24:22.566Z,79.80
2022-12-01T19:27:24.959Z,79.60
2022-12-01T19:30:26.921Z,79.90
2022-12-01T19:33:28.884Z,79.80
2022-12-01T19:36:31.017Z,79.90
2022-12-01T19:39:33.039Z,79.60
2022-12-01T19:42:34.956Z,79.90
2022-12-01T19:45:38.360Z,80.10
2022-12-01T19:48:40.864Z,80.20
2022-12-01T19:51:42.887Z,80.10
2022-12-01T19:54:44.783Z,80.00
2022-12-01T19:57:50.846Z,80.50
2022-12-01T20:00:52.779Z,80.60
2022-12-01T20:03:55.350Z,80.30
2022-12-01T20:06:57.260Z,80.90
2022-12-01T20:09:59.151Z,80.50
2022-12-01T20:13:01.171Z,79.90
2022-12-01T20:16:12.060Z,80.30
2022-12-01T20:19:14.030Z,80.50
2022-12-01T20:22:18.421Z,80.70
2022-12-01T20:25:20.461Z,80.70
2022-12-01T20:28:22.404Z,80.80
2022-12-01T20:31:27.226Z,80.00
2022-12-01T20:34:34.573Z,79.90
2022-12-01T20:37:36.511Z,80.20
2022-12-01T20:40:38.509Z,80.20
2022-12-01T20:43:40.524Z,80.00
2022-12-01T20:46:43.126Z,80.00
2022-12-01T20:49:45.523Z,80.60
2022-12-01T20:52:47.342Z,80.80
2022-12-01T20:55:51.739Z,80.10
2022-12-01T20:58:53.616Z,80.30
2022-12-01T21:01:55.721Z,80.10
2022-12-01T21:04:59.159Z,80.40
2022-12-01T21:08:02.350Z,80.20
2022-12-01T21:11:05.581Z,80.10
2022-12-01T21:14:24.341Z,81.40
2022-12-01T21:17:34.806Z,80.90
2022-12-01T21:20:39.814Z,80.70
2022-12-01T21:23:42.068Z,80.60
2022-12-01T21:27:02.182Z,80.30
2022-12-01T21:30:14.660Z,81.20
2022-12-01T21:33:22.205Z,80.10
2022-12-01T21:36:28.807Z,80.40
2022-12-01T21:39:30.791Z,80.30
2022-12-01T21:42:32.797Z,80.40
2022-12-01T21:45:34.704Z,80.20
2022-12-01T21:48:37.334Z,80.20
2022-12-01T21:51:39.264Z,80.00
2022-12-01T21:54:41.267Z,80.30
2022-12-01T21:57:53.974Z,80.30
2022-12-01T22:00:59.545Z,80.50
2022-12-01T22:04:10.903Z,80.70
2022-12-01T22:07:15.182Z,80.30
2022-12-01T22:10:54.498Z,81.00
2022-12-01T22:14:08.738Z,80.00
2022-12-01T22:17:18.962Z,81.00
2022-12-01T22:20:22.596Z,80.80
2022-12-01T22:23:32.397Z,80.40
2022-12-01T22:26:39.868Z,80.70
2022-12-01T22:29:47.168Z,80.40
2022-12-01T22:33:02.417Z,80.80
2022-12-01T22:36:23.045Z,81.10
2022-12-01T22:39:33.889Z,80.80
2022-12-01T22:42:35.987Z,81.30
2022-12-01T22:45:38.738Z,80.90
2022-12-01T22:49:05.506Z,81.70
2022-12-01T22:52:18.752Z,81.50
2022-12-01T22:55:20.731Z,81.40
2022-12-01T22:58:30.299Z,81.30
2022-12-01T23:01:34.039Z,81.40
2022-12-01T23:04:41.428Z,81.40
2022-12-01T23:07:43.992Z,80.90
2022-12-01T23:10:45.978Z,81.20
2022-12-01T23:13:47.893Z,81.70
2022-12-01T23:16:56.576Z,81.00
2022-12-01T23:20:08.343Z,81.70
2022-12-01T23:23:32.877Z,81.90
2022-12-01T23:26:34.681Z,82.00
2022-12-01T23:29:37.148Z,82.10
2022-12-01T23:32:39.260Z,81.00
2022-12-01T23:36:01.355Z,81.60
2022-12-01T23:39:10.722Z,81.00
2022-12-01T23:42:13.053Z,80.70
2022-12-01T23:45:21.487Z,80.90
2022-12-01T23:48:27.299Z,81.10
2022-12-01T23:51:32.744Z,81.30
2022-12-01T23:54:37.813Z,81.30
2022-12-01T23:57:39.726Z,81.70
